Time;durP1;ratioP1;P1;durP2;ratioP2;P2;SDS_P1;SDS_P2;PMS_P1;PMS_P2;Temp;Humidity;BMP_temperature;BMP_pressure;BME280_temperature;BME280_humidity;BME280_pressure;Samples;Min_cycle;Max_cycle;Signal;HPM_P1;HPM_P2
2021/03/28 00:03:02;;;;;;;39.33;18.17;;;;;;;3.98;100.00;95737.34;10481776;28;20036;-75
2021/03/28 00:08:18;;;;;;;38.47;16.70;;;;;;;4.04;100.00;95733.03;10481990;28;20064;-76
2021/03/28 00:13:27;;;;;;;29.83;14.77;;;;;;;4.01;100.00;95738.78;10480808;28;20036;-76
2021/03/28 00:18:34;;;;;;;32.95;15.43;;;;;;;4.07;100.00;95748.56;10482130;28;20044;-77
2021/03/28 00:23:45;;;;;;;26.85;14.32;;;;;;;4.07;100.00;95746.72;10481483;28;20036;-76
2021/03/28 00:28:49;;;;;;;29.50;14.77;;;;;;;3.96;100.00;95751.88;10480975;28;20029;-77
2021/03/28 00:34:17;;;;;;;40.13;17.10;;;;;;;3.96;100.00;95744.69;10481442;28;20040;-76
2021/03/28 00:39:37;;;;;;;35.38;15.48;;;;;;;3.69;100.00;95750.03;10482964;28;20043;-76
2021/03/28 00:44:49;;;;;;;28.67;16.83;;;;;;;3.59;100.00;95753.09;10488276;28;20033;-75
2021/03/28 00:50:05;;;;;;;33.47;17.10;;;;;;;3.58;100.00;95762.09;10486964;28;20399;-77
2021/03/28 00:55:19;;;;;;;28.63;17.27;;;;;;;3.39;100.00;95755.75;10501100;28;20036;-76
2021/03/28 01:01:15;;;;;;;35.47;17.40;;;;;;;3.15;100.00;95761.63;10486647;28;20033;-76
2021/03/28 01:06:30;;;;;;;34.22;17.67;;;;;;;3.10;100.00;95766.72;10481262;28;20087;-75
2021/03/28 01:11:56;;;;;;;47.53;18.50;;;;;;;3.02;100.00;95757.09;10467265;28;20471;-76
2021/03/28 01:17:09;;;;;;;37.42;19.40;;;;;;;2.66;100.00;95752.88;10446467;28;20069;-77
2021/03/28 01:22:09;;;;;;;39.00;20.50;;;;;;;2.56;100.00;95745.28;10445534;28;20132;-76
2021/03/28 01:27:25;;;;;;;37.88;20.90;;;;;;;2.61;100.00;95742.88;10444930;28;20024;-76
2021/03/28 01:33:09;;;;;;;43.72;18.20;;;;;;;2.66;100.00;95747.59;10445494;28;20036;-76
2021/03/28 01:38:23;;;;;;;42.55;19.08;;;;;;;2.59;100.00;95752.84;10445833;28;20036;-76
2021/03/28 01:43:45;;;;;;;44.28;22.02;;;;;;;2.54;100.00;95752.63;10445320;28;20036;-76
2021/03/28 01:48:50;;;;;;;35.03;20.30;;;;;;;2.59;100.00;95757.34;10445056;28;20040;-76
2021/03/28 01:53:56;;;;;;;35.50;16.25;;;;;;;2.60;100.00;95759.00;10444061;28;20886;-76
2021/03/28 01:59:27;;;;;;;33.15;18.02;;;;;;;2.68;100.00;95758.81;10443744;28;20041;-76
2021/03/28 02:04:40;;;;;;;34.03;18.52;;;;;;;2.52;100.00;95757.31;10444244;28;20553;-76
2021/03/28 02:10:09;;;;;;;48.60;20.40;;;;;;;2.63;100.00;95763.91;10443160;28;20053;-76
2021/03/28 02:15:40;;;;;;;45.45;20.88;;;;;;;2.70;100.00;95749.63;10444128;28;20246;-76
2021/03/28 02:20:55;;;;;;;40.50;19.10;;;;;;;2.74;100.00;95750.06;10443908;28;20116;-76
2021/03/28 02:26:02;;;;;;;39.17;20.75;;;;;;;2.76;100.00;95748.03;10442209;28;20025;-76
2021/03/28 02:31:19;;;;;;;41.75;19.67;;;;;;;2.64;100.00;95757.59;10443477;28;20048;-76
2021/03/28 02:36:58;;;;;;;40.42;21.08;;;;;;;2.59;100.00;95767.97;10443537;28;20028;-76
2021/03/28 02:42:12;;;;;;;44.20;20.77;;;;;;;2.62;100.00;95770.22;10430334;28;20036;-73
2021/03/28 02:47:50;;;;;;;23.55;12.82;;;;;;;2.49;100.00;95771.00;10443195;28;20060;-76
2021/03/28 02:53:18;;;;;;;21.10;11.50;;;;;;;2.49;100.00;95771.78;10442244;28;20074;-76
2021/03/28 02:58:40;;;;;;;28.58;12.43;;;;;;;2.43;100.00;95788.50;10442128;28;20021;-75
2021/03/28 03:04:06;;;;;;;40.25;17.25;;;;;;;2.29;100.00;95786.78;10441846;28;20021;-76
2021/03/28 03:09:31;;;;;;;43.70;17.83;;;;;;;2.12;100.00;95795.06;10440153;28;20084;-75
2021/03/28 03:15:10;;;;;;;40.88;17.75;;;;;;;2.08;100.00;95787.66;10441169;28;20471;-76
2021/03/28 03:20:42;;;;;;;39.50;20.10;;;;;;;2.09;100.00;95790.13;10441006;28;20037;-75
2021/03/28 03:26:20;;;;;;;31.60;16.08;;;;;;;1.96;100.00;95795.34;10439949;28;20082;-75
2021/03/28 03:31:32;;;;;;;30.30;16.83;;;;;;;1.79;100.00;95803.56;10441327;28;20090;-75
2021/03/28 03:36:54;;;;;;;26.38;15.13;;;;;;;1.85;100.00;95810.75;10440176;28;20029;-76
2021/03/28 03:42:46;;;;;;;33.40;16.67;;;;;;;1.86;100.00;95811.59;10441192;28;20120;-77
2021/03/28 03:48:24;;;;;;;34.03;16.02;;;;;;;1.75;100.00;95814.75;10420782;28;20123;-77
2021/03/28 03:53:27;;;;;;;37.35;16.85;;;;;;;1.67;100.00;95821.81;10440288;28;20025;-76
2021/03/28 03:58:38;;;;;;;32.63;14.98;;;;;;;1.57;100.00;95817.84;10438329;28;20029;-76
2021/03/28 04:03:38;;;;;;;31.42;15.38;;;;;;;1.62;100.00;95828.69;10439205;28;20108;-77
2021/03/28 04:09:02;;;;;;;39.60;16.15;;;;;;;1.52;100.00;95821.91;10439732;28;20049;-76
2021/03/28 04:14:05;;;;;;;32.60;17.10;;;;;;;1.54;100.00;95830.47;10443807;28;20265;-77
2021/03/28 04:19:28;;;;;;;30.60;16.05;;;;;;;1.51;100.00;95835.34;10447863;28;20094;-74
2021/03/28 04:24:59;;;;;;;34.45;17.13;;;;;;;1.69;100.00;95837.53;10446779;28;20036;-74
2021/03/28 04:29:59;;;;;;;28.17;15.05;;;;;;;1.80;100.00;95847.63;10445812;28;20029;-74
2021/03/28 04:35:24;;;;;;;31.03;16.03;;;;;;;1.94;100.00;95853.88;10447190;28;20043;-74
2021/03/28 04:40:40;;;;;;;43.33;17.42;;;;;;;2.06;100.00;95859.44;10446853;28;20290;-74
2021/03/28 04:46:23;;;;;;;37.22;18.60;;;;;;;2.20;100.00;95861.19;10446332;28;20025;-73
2021/03/28 04:51:54;;;;;;;30.05;17.05;;;;;;;2.34;100.00;95871.91;10446800;28;20025;-73
2021/03/28 04:57:04;;;;;;;35.22;15.48;;;;;;;2.61;100.00;95869.44;10445682;28;20059;-73
2021/03/28 05:02:16;;;;;;;45.35;16.35;;;;;;;2.95;100.00;95871.25;10444949;28;20035;-73
2021/03/28 05:07:35;;;;;;;34.40;14.88;;;;;;;3.42;100.00;95880.22;10448290;28;20071;-73
2021/03/28 05:12:57;;;;;;;;;;;;;;;3.87;100.00;95878.91;10450016;28;20041;-73
2021/03/28 05:18:15;;;;;;;28.90;11.13;;;;;;;4.19;100.00;95879.97;10448418;28;20355;-73
2021/03/28 05:23:18;;;;;;;24.52;10.23;;;;;;;4.54;100.00;95879.72;10449184;28;20033;-73
2021/03/28 05:28:56;;;;;;;22.35;9.43;;;;;;;4.99;99.56;95889.69;10447406;28;20033;-73
2021/03/28 05:34:47;;;;;;;17.13;9.27;;;;;;;5.20;99.69;95885.13;10448946;28;20036;-73
2021/03/28 05:40:17;;;;;;;25.30;10.55;;;;;;;5.43;99.58;95897.97;10448828;28;20112;-75
2021/03/28 05:45:20;;;;;;;16.88;8.63;;;;;;;5.50;97.61;95896.06;10426425;28;20048;-71
2021/03/28 05:50:46;;;;;;;18.65;9.25;;;;;;;6.80;90.09;95902.78;10447951;28;20111;-72
2021/03/28 05:55:52;;;;;;;21.35;10.35;;;;;;;7.61;77.43;95912.63;10483345;28;20380;-72
2021/03/28 06:00:56;;;;;;;14.10;8.07;;;;;;;8.72;72.45;95914.94;10487772;28;20035;-72
2021/03/28 06:06:21;;;;;;;12.77;8.18;;;;;;;8.87;62.48;95915.31;10485487;28;20541;-72
2021/03/28 06:11:42;;;;;;;16.05;8.43;;;;;;;9.04;64.17;95912.75;10484318;28;20036;-72
2021/03/28 06:17:17;;;;;;;15.88;7.50;;;;;;;9.92;58.79;95914.50;10483546;28;20105;-72
2021/03/28 06:23:03;;;;;;;16.38;9.77;;;;;;;10.39;60.93;95917.00;10442209;28;20520;-73
2021/03/28 06:28:37;;;;;;;26.48;10.60;;;;;;;10.82;57.83;95912.06;10455236;28;20098;-72
2021/03/28 06:34:15;;;;;;;29.27;14.27;;;;;;;11.01;56.53;95912.63;10484288;28;20044;-73
2021/03/28 06:39:53;;;;;;;31.50;14.53;;;;;;;11.94;54.46;95908.44;10440308;28;20056;-73
2021/03/28 06:45:29;;;;;;;31.08;15.75;;;;;;;13.27;49.79;95916.03;10443148;28;20123;-73
2021/03/28 06:50:56;;;;;;;31.85;14.95;;;;;;;13.86;45.36;95909.59;10473351;28;20044;-73
2021/03/28 06:56:34;;;;;;;28.63;15.57;;;;;;;14.94;45.39;95911.69;10483357;28;20035;-73
2021/03/28 07:01:59;;;;;;;20.75;12.57;;;;;;;15.37;42.00;95915.66;10484274;28;20039;-73
2021/03/28 07:07:28;;;;;;;28.80;14.45;;;;;;;16.21;40.45;95908.88;10482707;28;20097;-73
2021/03/28 07:12:47;;;;;;;31.58;15.48;;;;;;;17.23;38.43;95915.47;10481297;28;20028;-74
2021/03/28 07:18:08;;;;;;;34.80;17.10;;;;;;;17.56;39.00;95915.66;10481547;28;20025;-73
2021/03/28 07:23:33;;;;;;;39.08;17.52;;;;;;;16.79;38.64;95912.84;10483077;28;20066;-74
2021/03/28 07:28:51;;;;;;;34.92;18.35;;;;;;;15.00;41.55;95930.38;10483627;28;20031;-73
2021/03/28 07:33:52;;;;;;;;;;;;;;;13.90;44.51;95936.91;10482402;28;20058;-71
2021/03/28 07:39:23;;;;;;;39.20;22.73;;;;;;;12.65;47.90;95945.25;10479682;28;19913;-72
2021/03/28 07:44:42;;;;;;;45.78;22.77;;;;;;;12.23;51.41;95954.03;10481032;28;20146;-72
2021/03/28 07:49:43;;;;;;;43.92;23.73;;;;;;;11.99;55.68;95954.31;10444492;28;20032;-73
2021/03/28 07:54:58;;;;;;;45.43;22.03;;;;;;;13.39;50.00;95959.88;10472107;28;20039;-73
2021/03/28 08:00:17;;;;;;;48.15;22.05;;;;;;;15.24;44.71;95950.63;10489274;28;20138;-73
2021/03/28 08:05:49;;;;;;;41.90;22.35;;;;;;;18.05;39.96;95942.91;10488891;28;20481;-73
2021/03/28 08:11:08;;;;;;;47.30;21.63;;;;;;;19.70;36.62;95938.44;10488932;28;20400;-73
2021/03/28 08:16:27;;;;;;;46.90;20.23;;;;;;;21.08;34.55;95936.59;10448400;28;20123;-73
2021/03/28 08:21:32;;;;;;;55.30;21.60;;;;;;;21.81;32.26;95935.59;10449942;28;20476;-72
2021/03/28 08:26:51;;;;;;;40.40;19.05;;;;;;;23.27;30.67;95937.28;10451490;28;20553;-73
2021/03/28 08:32:13;;;;;;;29.27;14.20;;;;;;;23.30;29.37;95933.09;10451394;28;20108;-73
2021/03/28 08:37:29;;;;;;;18.42;8.65;;;;;;;23.75;29.68;95927.16;10449519;28;20047;-73
2021/03/28 08:42:57;;;;;;;17.55;8.98;;;;;;;22.80;31.30;95921.50;10450899;28;20060;-72
2021/03/28 08:48:29;;;;;;;12.95;7.80;;;;;;;18.48;35.75;95929.25;10450467;28;20040;-72
2021/03/28 08:53:39;;;;;;;29.85;10.73;;;;;;;20.24;35.17;95935.22;10446787;28;20045;-72
2021/03/28 08:59:10;;;;;;;18.10;7.55;;;;;;;21.27;34.33;95917.28;10449792;28;20025;-72
2021/03/28 09:04:17;;;;;;;14.52;6.60;;;;;;;20.15;36.38;95914.13;10449540;28;20053;-73
2021/03/28 09:09:41;;;;;;;13.95;6.70;;;;;;;19.34;38.96;95913.75;10446275;28;20036;-73
2021/03/28 09:14:47;;;;;;;17.42;7.53;;;;;;;20.74;36.78;95912.59;10446418;28;20078;-72
2021/03/28 09:20:06;;;;;;;15.48;6.25;;;;;;;23.14;33.16;95910.84;10445370;28;20033;-73
2021/03/28 09:25:15;;;;;;;11.43;6.22;;;;;;;23.25;32.37;95919.53;10445798;28;20029;-73
2021/03/28 09:30:38;;;;;;;14.55;7.05;;;;;;;20.82;35.71;95912.66;10445696;28;20051;-73
2021/03/28 09:35:58;;;;;;;18.77;8.13;;;;;;;19.54;38.75;95915.31;10445543;28;20044;-73
2021/03/28 09:41:07;;;;;;;17.13;7.90;;;;;;;20.25;38.64;95901.38;10469564;28;20487;-73
2021/03/28 09:46:39;;;;;;;11.05;6.97;;;;;;;22.36;36.26;95902.28;10486678;28;20626;-73
2021/03/28 09:51:49;;;;;;;17.75;6.88;;;;;;;24.92;31.50;95903.84;10486069;28;20033;-73
2021/03/28 09:57:16;;;;;;;14.90;6.32;;;;;;;26.55;29.13;95886.03;10482598;28;20104;-73
2021/03/28 10:02:16;;;;;;;;;;;;;;;28.29;27.86;95906.09;10474129;28;20550;-73
2021/03/28 10:07:26;;;;;;;15.27;5.95;;;;;;;24.93;30.89;95901.91;10478323;28;19920;-76
2021/03/28 10:12:51;;;;;;;10.60;6.95;;;;;;;21.24;36.13;95906.16;10472443;28;20158;-76
2021/03/28 10:18:04;;;;;;;14.68;7.03;;;;;;;19.41;43.10;95905.97;10468300;28;20032;-76
2021/03/28 10:23:32;;;;;;;10.10;6.00;;;;;;;19.05;42.08;95912.09;10468584;28;20037;-76
2021/03/28 10:29:04;;;;;;;9.85;7.10;;;;;;;19.18;44.29;95902.31;10459875;28;20135;-74
2021/03/28 10:34:41;;;;;;;11.90;6.72;;;;;;;22.62;39.30;95912.47;10463306;28;20120;-75
2021/03/28 10:40:23;;;;;;;11.98;6.45;;;;;;;22.16;38.02;95914.63;10469147;28;20907;-75
2021/03/28 10:45:34;;;;;;;14.77;6.63;;;;;;;23.42;37.99;95914.00;10460206;28;20025;-76
2021/03/28 10:51:16;;;;;;;17.13;6.95;;;;;;;24.53;35.75;95914.16;10459479;28;20084;-75
2021/03/28 10:56:32;;;;;;;14.18;7.68;;;;;;;22.59;37.64;95926.00;10430356;28;20149;-76
2021/03/28 11:01:38;;;;;;;16.25;8.18;;;;;;;21.64;40.55;95926.22;10470228;28;20044;-76
2021/03/28 11:06:43;;;;;;;15.45;6.03;;;;;;;22.96;38.92;95926.50;10480795;28;20736;-72
2021/03/28 11:12:08;;;;;;;11.25;5.95;;;;;;;23.66;38.14;95931.88;10464087;28;20524;-73
2021/03/28 11:17:51;;;;;;;14.07;5.68;;;;;;;21.44;41.61;95932.19;10459059;28;20075;-72
2021/03/28 11:23:28;;;;;;;13.45;7.75;;;;;;;17.20;52.45;95934.25;10458252;28;20114;-72
2021/03/28 11:28:44;;;;;;;12.98;8.05;;;;;;;16.94;57.26;95937.19;10457160;28;20063;-72
2021/03/28 11:34:19;;;;;;;17.20;8.60;;;;;;;16.66;61.86;95946.84;10457579;28;20040;-72
2021/03/28 11:39:32;;;;;;;13.60;8.93;;;;;;;14.62;73.88;95946.03;10457263;28;20044;-72
2021/03/28 11:44:40;;;;;;;14.52;9.73;;;;;;;14.37;78.08;95949.47;10476810;28;20043;-73
2021/03/28 11:50:13;;;;;;;26.90;9.82;;;;;;;15.31;76.36;95938.44;10481967;28;20029;-72
2021/03/28 11:55:31;;;;;;;17.77;10.15;;;;;;;13.96;77.89;95938.56;10442945;28;20104;-72
2021/03/28 12:00:47;;;;;;;18.13;10.93;;;;;;;13.16;84.82;95931.38;10439146;28;20025;-72
2021/03/28 12:05:49;;;;;;;21.60;12.68;;;;;;;13.03;93.33;95932.59;10440105;28;20049;-73
2021/03/28 12:10:51;;;;;;;22.45;12.52;;;;;;;13.56;86.28;95948.09;10440545;28;20033;-73
2021/03/28 12:15:52;;;;;;;21.75;13.40;;;;;;;13.01;88.03;95931.25;10439710;28;20423;-73
2021/03/28 12:20:58;;;;;;;32.38;14.63;;;;;;;12.34;92.32;95934.19;10440476;28;20056;-73
2021/03/28 12:26:06;;;;;;;20.92;13.30;;;;;;;12.33;91.53;95932.56;10438230;28;20037;-72
2021/03/28 12:31:37;;;;;;;30.35;15.85;;;;;;;12.35;95.57;95927.75;10438762;28;20811;-73
2021/03/28 12:37:11;;;;;;;26.60;14.80;;;;;;;12.70;87.35;95912.13;10443048;28;20048;-72
2021/03/28 12:42:24;;;;;;;28.33;14.50;;;;;;;12.61;91.39;95907.22;10440074;28;20106;-72
2021/03/28 12:47:31;;;;;;;23.05;14.65;;;;;;;12.52;90.79;95902.56;10447086;28;20040;-72
2021/03/28 12:52:45;;;;;;;27.40;16.02;;;;;;;13.15;86.45;95911.66;10446537;28;20044;-72
2021/03/28 12:57:54;;;;;;;50.58;19.20;;;;;;;13.55;81.13;95911.34;10445398;28;20064;-72
2021/03/28 13:02:57;;;;;;;27.60;15.45;;;;;;;13.41;80.26;95908.31;10446023;28;20033;-72
2021/03/28 13:08:16;;;;;;;23.90;16.10;;;;;;;12.58;87.44;95901.50;10448178;28;20064;-71
2021/03/28 13:13:25;;;;;;;33.75;17.83;;;;;;;13.24;86.93;95898.50;10449533;28;20028;-72
2021/03/28 13:18:40;;;;;;;26.52;16.45;;;;;;;13.58;83.89;95902.75;10449423;28;20029;-72
2021/03/28 13:24:03;;;;;;;25.02;16.67;;;;;;;13.62;78.83;95904.66;10448983;28;20029;-72
2021/03/28 13:29:16;;;;;;;27.60;17.33;;;;;;;13.80;81.40;95899.84;10447895;28;20028;-71
2021/03/28 13:34:39;;;;;;;22.25;14.88;;;;;;;13.61;77.92;95899.50;10448418;28;20024;-72
2021/03/28 13:39:54;;;;;;;28.52;16.20;;;;;;;13.46;77.83;95894.84;10471332;28;20063;-72
2021/03/28 13:45:00;;;;;;;25.30;16.25;;;;;;;13.74;81.43;95896.31;10447956;28;20029;-72
2021/03/28 13:50:16;;;;;;;24.23;14.32;;;;;;;13.48;83.99;95895.41;10447190;28;20107;-72
2021/03/28 13:55:43;;;;;;;18.55;12.75;;;;;;;13.72;78.43;95906.59;10448075;28;20013;-74
2021/03/28 14:00:48;;;;;;;21.27;14.00;;;;;;;13.72;81.37;95909.28;10442725;28;20107;-73
2021/03/28 14:05:50;;;;;;;27.40;14.85;;;;;;;13.61;83.62;95913.03;10446412;28;20052;-73
2021/03/28 14:10:55;;;;;;;29.92;14.95;;;;;;;13.59;83.87;95920.56;10453120;28;20170;-73
2021/03/28 14:16:01;;;;;;;27.05;14.45;;;;;;;13.39;84.34;95921.28;10484830;28;20039;-73
2021/03/28 14:21:26;;;;;;;30.23;15.95;;;;;;;12.99;90.26;95918.84;10466839;28;20040;-72
2021/03/28 14:26:32;;;;;;;29.88;14.82;;;;;;;12.92;89.01;95920.13;10468926;28;20056;-72
2021/03/28 14:31:39;;;;;;;27.08;15.57;;;;;;;12.99;89.29;95921.53;10449378;28;20099;-73
2021/03/28 14:37:05;;;;;;;26.88;15.98;;;;;;;12.83;90.93;95915.19;10483979;28;20803;-76
2021/03/28 14:42:15;;;;;;;28.90;16.70;;;;;;;12.74;90.80;95910.53;10454089;28;20109;-74
2021/03/28 14:47:54;;;;;;;27.02;15.52;;;;;;;12.68;91.34;95906.97;10465605;28;20057;-74
2021/03/28 14:53:32;;;;;;;37.78;17.17;;;;;;;12.78;90.09;95907.09;10462898;28;20040;-73
2021/03/28 14:58:51;;;;;;;26.10;14.77;;;;;;;12.56;88.29;95890.16;10477880;28;20055;-72
2021/03/28 15:03:54;;;;;;;;;;;;;;;12.54;87.67;95906.59;10469065;28;20033;-72
2021/03/28 15:09:15;;;;;;;21.63;13.23;;;;;;;12.48;87.80;95900.34;10482874;28;19920;-72
2021/03/28 15:14:37;;;;;;;22.85;13.38;;;;;;;11.87;93.32;95903.22;10482983;28;20032;-72
2021/03/28 15:19:49;;;;;;;25.25;12.65;;;;;;;12.04;92.83;95902.34;10482552;28;20029;-72
2021/03/28 15:25:01;;;;;;;20.30;11.43;;;;;;;12.12;92.15;95897.31;10483692;28;20106;-72
2021/03/28 15:30:18;;;;;;;23.20;12.77;;;;;;;12.00;94.23;95899.38;10483308;28;20028;-72
2021/03/28 15:35:37;;;;;;;23.85;11.38;;;;;;;11.85;93.21;95905.34;10482658;28;20031;-73
2021/03/28 15:40:44;;;;;;;20.50;11.27;;;;;;;11.79;94.01;95899.09;10448719;28;20029;-73
2021/03/28 15:45:56;;;;;;;21.17;11.32;;;;;;;11.52;94.80;95900.91;10442544;28;20044;-74
2021/03/28 15:51:14;;;;;;;22.20;10.98;;;;;;;11.49;95.40;95904.13;10441601;28;20040;-73
2021/03/28 15:56:24;;;;;;;14.85;9.50;;;;;;;11.48;95.93;95924.81;10449987;28;20036;-73
2021/03/28 16:01:56;;;;;;;19.83;10.40;;;;;;;11.51;95.19;95924.34;10467950;28;20025;-72
2021/03/28 16:07:12;;;;;;;17.05;9.18;;;;;;;11.54;94.60;95936.47;10484432;28;20048;-74
2021/03/28 16:12:24;;;;;;;14.13;7.47;;;;;;;10.84;93.82;95936.84;10478821;28;20890;-73
2021/03/28 16:17:45;;;;;;;16.23;8.18;;;;;;;10.67;97.80;95941.38;10471078;28;20033;-73
2021/03/28 16:23:06;;;;;;;13.45;8.45;;;;;;;10.33;99.09;95947.50;10484068;28;20074;-76
2021/03/28 16:28:22;;;;;;;14.88;8.75;;;;;;;10.52;98.34;95964.28;10491057;28;20128;-77
2021/03/28 16:33:55;;;;;;;11.60;7.55;;;;;;;10.70;95.71;95971.31;10452215;28;20182;-77
2021/03/28 16:39:28;;;;;;;13.02;8.35;;;;;;;10.64;96.30;95950.75;10489983;28;20036;-76
2021/03/28 16:44:50;;;;;;;12.57;7.82;;;;;;;10.47;95.12;95966.88;10492462;28;20047;-74
2021/03/28 16:50:15;;;;;;;16.77;7.30;;;;;;;10.27;95.71;95969.97;10471764;28;20149;-75
2021/03/28 16:55:21;;;;;;;10.00;6.88;;;;;;;10.03;96.41;95970.06;10473622;28;20090;-75
2021/03/28 17:00:25;;;;;;;12.88;7.65;;;;;;;10.13;98.32;95976.69;10469693;28;20024;-75
2021/03/28 17:05:30;;;;;;;14.13;6.22;;;;;;;9.93;98.49;95980.59;10467116;28;20049;-75
2021/03/28 17:10:33;;;;;;;14.25;7.63;;;;;;;9.90;100.00;95979.19;10466730;28;20036;-77
2021/03/28 17:15:45;;;;;;;15.65;8.20;;;;;;;9.90;98.50;95975.72;10464645;28;20148;-74
2021/03/28 17:21:04;;;;;;;13.05;7.80;;;;;;;9.57;99.36;95980.69;10461890;28;20471;-75
2021/03/28 17:26:19;;;;;;;13.63;7.85;;;;;;;9.46;100.00;95981.53;10474451;28;20028;-75
2021/03/28 17:31:28;;;;;;;15.43;8.60;;;;;;;9.36;100.00;95983.97;10464694;28;20124;-75
2021/03/28 17:36:51;;;;;;;14.40;7.85;;;;;;;9.33;100.00;95989.78;10468206;28;20087;-74
2021/03/28 17:42:01;;;;;;;13.95;7.15;;;;;;;9.18;100.00;95995.63;10496054;28;20029;-74
2021/03/28 17:47:15;;;;;;;15.52;6.22;;;;;;;9.15;100.00;95996.91;10467551;28;20116;-74
2021/03/28 17:52:18;;;;;;;15.27;7.60;;;;;;;9.26;100.00;95997.97;10470134;28;20489;-74
2021/03/28 17:57:24;;;;;;;10.27;6.30;;;;;;;9.27;100.00;96004.16;10456753;28;20035;-75
2021/03/28 18:02:29;;;;;;;16.15;6.97;;;;;;;9.07;98.25;96008.81;10451834;28;20036;-75
2021/03/28 18:07:34;;;;;;;10.30;6.40;;;;;;;8.96;97.80;96004.25;10444837;28;20053;-74
2021/03/28 18:12:34;;;;;;;10.85;6.85;;;;;;;9.01;97.26;96009.72;10472782;28;20051;-74
2021/03/28 18:17:35;;;;;;;8.73;5.93;;;;;;;9.01;96.31;96017.75;10484992;28;20032;-74
2021/03/28 18:22:35;;;;;;;9.65;6.22;;;;;;;9.05;95.02;96024.28;10485910;28;20339;-74
2021/03/28 18:27:37;;;;;;;8.73;6.10;;;;;;;8.84;93.30;96027.53;10442967;28;20459;-75
2021/03/28 18:32:40;;;;;;;7.13;5.70;;;;;;;8.71;94.24;96034.72;10443393;28;20062;-74
2021/03/28 18:37:48;;;;;;;11.50;5.93;;;;;;;8.66;94.53;96033.78;10445795;28;20458;-74
2021/03/28 18:42:55;;;;;;;9.70;5.90;;;;;;;8.64;92.97;96030.53;10485433;28;20028;-74
2021/03/28 18:48:31;;;;;;;10.23;5.40;;;;;;;8.54;92.99;96039.94;10464475;28;20047;-74
2021/03/28 18:53:33;;;;;;;10.07;4.72;;;;;;;8.68;94.36;96037.88;10485197;28;20487;-74
2021/03/28 18:58:40;;;;;;;9.38;5.25;;;;;;;8.56;91.65;96042.38;10452767;28;20901;-75
2021/03/28 19:03:41;;;;;;;8.68;4.78;;;;;;;8.48;90.34;96048.03;10480114;28;20106;-75
2021/03/28 19:08:44;;;;;;;9.60;4.93;;;;;;;8.43;89.91;96042.50;10483406;28;20059;-75
2021/03/28 19:14:00;;;;;;;9.60;5.53;;;;;;;8.32;90.91;96036.88;10484946;28;20052;-75
2021/03/28 19:19:17;;;;;;;8.60;5.15;;;;;;;8.33;91.29;96038.53;10484049;28;20506;-75
2021/03/28 19:24:26;;;;;;;11.07;5.68;;;;;;;8.24;89.50;96031.84;10482423;28;20085;-74
2021/03/28 19:29:41;;;;;;;8.82;5.00;;;;;;;8.20;92.40;96036.00;10483360;28;20037;-74
2021/03/28 19:35:03;;;;;;;8.70;5.63;;;;;;;8.33;90.93;96041.22;10477803;28;20037;-75
2021/03/28 19:40:25;;;;;;;14.02;4.93;;;;;;;8.27;88.87;96035.94;10462391;28;20860;-71
2021/03/28 19:50:37;;;;;;;8.63;5.45;;;;;;;8.27;87.29;96039.41;10482074;28;20036;-76
2021/03/28 19:55:37;;;;;;;6.80;4.60;;;;;;;8.24;86.13;96037.19;10482528;28;20029;-76
2021/03/28 20:00:38;;;;;;;9.43;5.30;;;;;;;8.27;87.80;96038.63;10466920;28;20044;-75
2021/03/28 20:05:41;;;;;;;7.25;5.25;;;;;;;8.30;86.40;96039.00;10463357;28;20566;-75
2021/03/28 20:10:59;;;;;;;9.13;5.15;;;;;;;8.32;85.89;96039.56;10471628;28;20462;-77
2021/03/28 20:16:00;;;;;;;9.10;5.10;;;;;;;8.26;87.88;96043.16;10456341;28;20039;-77
2021/03/28 20:21:00;;;;;;;10.93;5.10;;;;;;;8.23;85.65;96038.25;10461068;28;20734;-76
2021/03/28 20:26:12;;;;;;;8.35;4.90;;;;;;;8.21;85.59;96037.66;10457293;28;20391;-77
2021/03/28 20:31:18;;;;;;;11.95;5.22;;;;;;;8.20;82.59;96044.88;10458614;28;20035;-76
2021/03/28 20:36:21;;;;;;;15.63;5.90;;;;;;;8.20;83.49;96050.25;10458102;28;20147;-76
2021/03/28 20:41:52;;;;;;;9.50;4.68;;;;;;;8.20;81.04;96052.09;10464049;28;20033;-76
2021/03/28 20:46:59;;;;;;;10.32;4.90;;;;;;;8.20;78.55;96069.00;10449586;28;20032;-76
2021/03/28 20:52:02;;;;;;;6.60;4.97;;;;;;;8.17;80.77;96061.38;10447503;28;20063;-76
2021/03/28 20:57:08;;;;;;;9.38;4.90;;;;;;;8.19;79.21;96064.66;10483378;28;20059;-75
2021/03/28 21:02:13;;;;;;;8.02;4.75;;;;;;;8.21;79.31;96064.44;10460527;28;20093;-75
2021/03/28 21:07:20;;;;;;;7.95;3.88;;;;;;;8.24;77.82;96068.53;10446874;28;20384;-76
2021/03/28 21:12:22;;;;;;;10.80;5.07;;;;;;;8.29;76.23;96076.69;10448415;28;20119;-76
2021/03/28 21:17:32;;;;;;;8.65;5.00;;;;;;;8.27;77.69;96079.59;10448658;28;20025;-76
2021/03/28 21:22:33;;;;;;;9.43;4.20;;;;;;;8.17;78.60;96076.66;10448422;28;20442;-76
2021/03/28 21:27:44;;;;;;;10.60;4.07;;;;;;;8.14;76.46;96080.59;10447948;28;20040;-77
2021/03/28 21:32:45;;;;;;;7.55;4.63;;;;;;;8.14;77.20;96085.13;10447815;28;20067;-76
2021/03/28 21:37:52;;;;;;;10.32;4.72;;;;;;;8.08;76.41;96091.38;10446725;28;20021;-76
2021/03/28 21:42:58;;;;;;;7.88;4.85;;;;;;;7.98;78.79;96091.88;10445993;28;20431;-76
2021/03/28 21:48:06;;;;;;;9.73;5.30;;;;;;;7.89;80.81;96088.69;10447108;28;20040;-76
2021/03/28 21:53:16;;;;;;;9.83;4.87;;;;;;;7.87;79.26;96096.13;10446754;28;20029;-76
2021/03/28 21:58:17;;;;;;;6.03;4.75;;;;;;;7.78;79.59;96092.09;10446877;28;20032;-76
2021/03/28 22:03:22;;;;;;;10.35;6.22;;;;;;;7.68;81.82;96096.09;10446262;28;20060;-76
2021/03/28 22:08:23;;;;;;;9.07;4.78;;;;;;;7.70;79.19;96098.56;10482193;28;20053;-77
2021/03/28 22:13:34;;;;;;;9.95;4.97;;;;;;;7.65;80.17;96101.09;10483972;28;20082;-77
2021/03/28 22:18:36;;;;;;;13.60;5.80;;;;;;;7.63;79.08;96101.31;10483943;28;20108;-77
2021/03/28 22:23:38;;;;;;;8.48;4.55;;;;;;;7.33;77.08;96119.88;10483753;28;20128;-77
2021/03/28 22:28:47;;;;;;;7.03;4.93;;;;;;;7.44;81.32;96119.19;10483098;28;20089;-77
2021/03/28 22:33:49;;;;;;;12.48;5.30;;;;;;;7.36;76.56;96114.91;10484830;28;20544;-76
2021/03/28 22:38:49;;;;;;;5.57;4.20;;;;;;;7.42;77.73;96109.72;10489491;28;20067;-76
2021/03/28 22:43:55;;;;;;;10.10;4.30;;;;;;;7.47;79.93;96109.91;10482529;28;20058;-76
2021/03/28 22:48:56;;;;;;;9.43;4.47;;;;;;;7.09;77.88;96102.78;10482251;28;20032;-76
2021/03/28 22:54:06;;;;;;;7.85;4.40;;;;;;;7.09;76.57;96097.44;10483180;28;20491;-77
2021/03/28 22:59:14;;;;;;;9.05;4.80;;;;;;;6.98;77.42;96089.09;10483031;28;20035;-77
2021/03/28 23:04:16;;;;;;;5.17;4.33;;;;;;;6.94;75.33;96082.53;10482678;28;20032;-77
2021/03/28 23:09:17;;;;;;;10.02;4.47;;;;;;;7.07;75.06;96081.63;10482030;28;20519;-76
2021/03/28 23:14:17;;;;;;;10.13;3.63;;;;;;;7.14;72.20;96081.56;10481911;28;20024;-75
2021/03/28 23:19:18;;;;;;;8.18;4.07;;;;;;;7.29;69.18;96071.34;10481537;28;20029;-75
2021/03/28 23:24:20;;;;;;;11.18;4.25;;;;;;;7.34;67.87;96060.84;10481992;28;20028;-76
2021/03/28 23:29:26;;;;;;;6.80;3.55;;;;;;;7.47;71.94;96064.44;10451292;28;20025;-76
2021/03/28 23:34:27;;;;;;;5.57;3.70;;;;;;;7.65;72.32;96077.81;10440592;28;20048;-75
2021/03/28 23:39:27;;;;;;;10.93;4.40;;;;;;;7.85;72.08;96072.25;10439593;28;20506;-76
2021/03/28 23:44:38;;;;;;;9.63;3.70;;;;;;;7.95;68.79;96066.38;10440113;28;20028;-76
2021/03/28 23:49:55;;;;;;;8.98;4.38;;;;;;;8.12;66.75;96071.13;10440203;28;20298;-76
2021/03/28 23:54:57;;;;;;;8.68;4.00;;;;;;;8.19;63.64;96066.50;10439627;28;20032;-76
